sensor_id;sensor_type;location;lat;lon;timestamp;pressure;altitude;pressure_sealevel;temperature;humidity
13478;BME280;12598;62.382;17.344;2023-05-29T00:00:39;101655.91;;;22.46;21.95
13478;BME280;12598;62.382;17.344;2023-05-29T00:01:41;101656.06;;;22.44;21.26
13478;BME280;12598;62.382;17.344;2023-05-29T00:02:43;101662.28;;;22.45;21.95
13478;BME280;12598;62.382;17.344;2023-05-29T00:03:46;101661.47;;;22.44;21.79
13478;BME280;12598;62.382;17.344;2023-05-29T00:04:48;101663.59;;;22.41;21.19
13478;BME280;12598;62.382;17.344;2023-05-29T00:05:50;101668.69;;;22.44;21.87
13478;BME280;12598;62.382;17.344;2023-05-29T00:06:52;101670.53;;;22.43;21.88
13478;BME280;12598;62.382;17.344;2023-05-29T00:07:54;101674.25;;;22.42;21.30
13478;BME280;12598;62.382;17.344;2023-05-29T00:08:57;101671.56;;;22.42;21.32
13478;BME280;12598;62.382;17.344;2023-05-29T00:09:59;101674.25;;;22.42;22.07
13478;BME280;12598;62.382;17.344;2023-05-29T00:11:01;101672.56;;;22.41;21.24
13478;BME280;12598;62.382;17.344;2023-05-29T00:12:03;101687.84;;;22.41;21.22
13478;BME280;12598;62.382;17.344;2023-05-29T00:13:05;101679.78;;;22.41;21.96
13478;BME280;12598;62.382;17.344;2023-05-29T00:14:08;101664.34;;;22.33;21.36
13478;BME280;12598;62.382;17.344;2023-05-29T00:15:15;101684.16;;;22.42;21.47
13478;BME280;12598;62.382;17.344;2023-05-29T00:16:17;101684.47;;;22.39;21.23
13478;BME280;12598;62.382;17.344;2023-05-29T00:17:19;101692.41;;;22.40;21.96
13478;BME280;12598;62.382;17.344;2023-05-29T00:18:22;101690.84;;;22.38;21.24
13478;BME280;12598;62.382;17.344;2023-05-29T00:19:24;101691.72;;;22.38;21.60
13478;BME280;12598;62.382;17.344;2023-05-29T00:20:26;101692.72;;;22.37;21.92
13478;BME280;12598;62.382;17.344;2023-05-29T00:21:29;101695.41;;;22.37;21.22
13478;BME280;12598;62.382;17.344;2023-05-29T00:22:31;101697.25;;;22.37;21.52
13478;BME280;12598;62.382;17.344;2023-05-29T00:23:33;101697.25;;;22.37;21.86
13478;BME280;12598;62.382;17.344;2023-05-29T00:24:34;101665.41;;;22.23;21.55
13478;BME280;12598;62.382;17.344;2023-05-29T00:25:36;101692.84;;;22.36;21.38
13478;BME280;12598;62.382;17.344;2023-05-29T00:26:38;101689.06;;;22.29;21.37
13478;BME280;12598;62.382;17.344;2023-05-29T00:27:41;101696.53;;;22.35;22.05
13478;BME280;12598;62.382;17.344;2023-05-29T00:28:43;101695.69;;;22.34;21.24
13478;BME280;12598;62.382;17.344;2023-05-29T00:29:45;101691.31;;;22.33;22.03
13478;BME280;12598;62.382;17.344;2023-05-29T00:30:47;101698.53;;;22.33;21.49
13478;BME280;12598;62.382;17.344;2023-05-29T00:31:49;101694.13;;;22.32;21.79
13478;BME280;12598;62.382;17.344;2023-05-29T00:32:51;101704.91;;;22.32;21.93
13478;BME280;12598;62.382;17.344;2023-05-29T00:33:56;101700.53;;;22.31;21.93
13478;BME280;12598;62.382;17.344;2023-05-29T00:34:58;101694.75;;;22.26;21.81
13478;BME280;12598;62.382;17.344;2023-05-29T00:36:00;101687.66;;;22.25;21.95
13478;BME280;12598;62.382;17.344;2023-05-29T00:37:02;101689.66;;;22.23;22.06
13478;BME280;12598;62.382;17.344;2023-05-29T00:38:05;101696.13;;;22.30;22.02
13478;BME280;12598;62.382;17.344;2023-05-29T00:39:07;101689.38;;;22.26;21.85
13478;BME280;12598;62.382;17.344;2023-05-29T00:40:10;101689.66;;;22.23;21.52
13478;BME280;12598;62.382;17.344;2023-05-29T00:41:15;101692.88;;;22.26;22.14
13478;BME280;12598;62.382;17.344;2023-05-29T00:42:17;101692.75;;;22.28;21.88
13478;BME280;12598;62.382;17.344;2023-05-29T00:43:19;101697.13;;;22.29;21.57
13478;BME280;12598;62.382;17.344;2023-05-29T00:44:21;101693.75;;;22.27;21.76
13478;BME280;12598;62.382;17.344;2023-05-29T00:45:23;101703.66;;;22.26;22.07
13478;BME280;12598;62.382;17.344;2023-05-29T00:46:26;101700.13;;;22.26;21.47
13478;BME280;12598;62.382;17.344;2023-05-29T00:47:28;101704.53;;;22.27;21.95
13478;BME280;12598;62.382;17.344;2023-05-29T00:48:30;101689.97;;;22.20;21.49
13478;BME280;12598;62.382;17.344;2023-05-29T00:49:33;101707.53;;;22.24;21.80
13478;BME280;12598;62.382;17.344;2023-05-29T00:50:37;101698.44;;;22.25;21.36
13478;BME280;12598;62.382;17.344;2023-05-29T00:51:40;101704.84;;;22.24;21.39
13478;BME280;12598;62.382;17.344;2023-05-29T00:52:43;101703.44;;;22.20;21.97
13478;BME280;12598;62.382;17.344;2023-05-29T00:53:48;101702.28;;;22.22;21.99
13478;BME280;12598;62.382;17.344;2023-05-29T00:54:51;101707.53;;;22.24;22.11
13478;BME280;12598;62.382;17.344;2023-05-29T00:55:54;101711.22;;;22.23;21.70
13478;BME280;12598;62.382;17.344;2023-05-29T00:56:57;101713.91;;;22.23;21.43
13478;BME280;12598;62.382;17.344;2023-05-29T00:58:00;101714.91;;;22.22;21.55
13478;BME280;12598;62.382;17.344;2023-05-29T00:59:02;101717.63;;;22.22;21.67
13478;BME280;12598;62.382;17.344;2023-05-29T01:00:06;101709.53;;;22.22;22.04
13478;BME280;12598;62.382;17.344;2023-05-29T01:01:18;101717.44;;;22.23;21.37
13478;BME280;12598;62.382;17.344;2023-05-29T01:02:20;101719.44;;;22.21;21.53
13478;BME280;12598;62.382;17.344;2023-05-29T01:03:23;101718.63;;;22.21;22.13
13478;BME280;12598;62.382;17.344;2023-05-29T01:04:26;101715.22;;;22.19;21.72
13478;BME280;12598;62.382;17.344;2023-05-29T01:05:29;101722.31;;;22.20;21.72
13478;BME280;12598;62.382;17.344;2023-05-29T01:06:30;101720.63;;;22.19;21.59
13478;BME280;12598;62.382;17.344;2023-05-29T01:07:33;101719.75;;;22.18;22.10
13478;BME280;12598;62.382;17.344;2023-05-29T01:08:35;101717.22;;;22.17;22.33
13478;BME280;12598;62.382;17.344;2023-05-29T01:09:37;101713.53;;;22.18;21.50
13478;BME280;12598;62.382;17.344;2023-05-29T01:10:40;101707.59;;;22.14;21.92
13478;BME280;12598;62.382;17.344;2023-05-29T01:13:23;101716.31;;;22.26;22.19
13478;BME280;12598;62.382;17.344;2023-05-29T01:15:44;101719.44;;;22.21;21.59
13478;BME280;12598;62.382;17.344;2023-05-29T01:16:53;101722.13;;;22.21;22.23
13478;BME280;12598;62.382;17.344;2023-05-29T01:18:15;101721.13;;;22.22;22.25
13478;BME280;12598;62.382;17.344;2023-05-29T01:19:46;101731.63;;;22.25;21.37
13478;BME280;12598;62.382;17.344;2023-05-29T01:22:25;101738.38;;;22.29;22.25
13478;BME280;12598;62.382;17.344;2023-05-29T01:23:50;101727.91;;;22.26;21.94
13478;BME280;12598;62.382;17.344;2023-05-29T01:27:05;101733.25;;;22.36;21.89
13478;BME280;12598;62.382;17.344;2023-05-29T01:28:11;101730.16;;;22.31;21.91
13478;BME280;12598;62.382;17.344;2023-05-29T01:29:18;101732.91;;;22.21;22.01
13478;BME280;12598;62.382;17.344;2023-05-29T01:30:23;101738.78;;;22.17;21.99
13478;BME280;12598;62.382;17.344;2023-05-29T01:31:27;101738.22;;;22.13;21.67
13478;BME280;12598;62.382;17.344;2023-05-29T01:32:32;101735.69;;;22.12;21.75
13478;BME280;12598;62.382;17.344;2023-05-29T01:33:34;101738.66;;;22.09;21.61
13478;BME280;12598;62.382;17.344;2023-05-29T01:34:40;101739.66;;;22.08;21.83
13478;BME280;12598;62.382;17.344;2023-05-29T01:35:42;101740.50;;;22.08;22.04
13478;BME280;12598;62.382;17.344;2023-05-29T01:36:44;101738.81;;;22.07;22.16
13478;BME280;12598;62.382;17.344;2023-05-29T01:37:48;101738.94;;;22.06;21.57
13478;BME280;12598;62.382;17.344;2023-05-29T01:38:54;101739.25;;;22.03;22.41
13478;BME280;12598;62.382;17.344;2023-05-29T01:39:57;101740.81;;;22.05;22.34
13478;BME280;12598;62.382;17.344;2023-05-29T01:41:00;101725.69;;;21.95;22.00
13478;BME280;12598;62.382;17.344;2023-05-29T01:42:02;101740.94;;;22.04;22.27
13478;BME280;12598;62.382;17.344;2023-05-29T01:43:07;101746.34;;;22.04;21.61
13478;BME280;12598;62.382;17.344;2023-05-29T01:44:09;101735.03;;;22.00;22.22
13478;BME280;12598;62.382;17.344;2023-05-29T01:45:13;101738.88;;;21.98;22.02
13478;BME280;12598;62.382;17.344;2023-05-29T01:46:16;101740.56;;;21.99;22.20
13478;BME280;12598;62.382;17.344;2023-05-29T01:47:19;101748.34;;;22.02;21.92
13478;BME280;12598;62.382;17.344;2023-05-29T01:48:23;101747.09;;;21.96;21.88
13478;BME280;12598;62.382;17.344;2023-05-29T01:49:25;101761.09;;;22.00;21.91
13478;BME280;12598;62.382;17.344;2023-05-29T01:50:28;101744.25;;;21.98;22.27
13478;BME280;12598;62.382;17.344;2023-05-29T01:51:31;101739.63;;;21.90;22.07
13478;BME280;12598;62.382;17.344;2023-05-29T01:52:33;101747.63;;;22.00;22.05
13478;BME280;12598;62.382;17.344;2023-05-29T01:53:35;101751.31;;;21.99;22.43
13478;BME280;12598;62.382;17.344;2023-05-29T01:54:37;101760.41;;;21.98;22.33
13478;BME280;12598;62.382;17.344;2023-05-29T01:55:39;101743.03;;;21.92;22.27
13478;BME280;12598;62.382;17.344;2023-05-29T01:56:41;101748.81;;;21.97;22.35
13478;BME280;12598;62.382;17.344;2023-05-29T01:57:43;101747.09;;;21.96;22.29
13478;BME280;12598;62.382;17.344;2023-05-29T01:58:45;101744.41;;;21.96;22.05
13478;BME280;12598;62.382;17.344;2023-05-29T01:59:48;101742.56;;;21.97;22.51
13478;BME280;12598;62.382;17.344;2023-05-29T02:00:50;101742.56;;;21.97;22.37
13478;BME280;12598;62.382;17.344;2023-05-29T02:01:53;101732.25;;;21.92;21.74
13478;BME280;12598;62.382;17.344;2023-05-29T02:02:55;101734.38;;;21.89;21.98
13478;BME280;12598;62.382;17.344;2023-05-29T02:03:57;101734.06;;;21.92;21.97
13478;BME280;12598;62.382;17.344;2023-05-29T02:04:59;101742.72;;;21.95;22.37
13478;BME280;12598;62.382;17.344;2023-05-29T02:06:01;101716.81;;;21.85;21.96
13478;BME280;12598;62.382;17.344;2023-05-29T02:07:03;101739.31;;;21.93;22.31
13478;BME280;12598;62.382;17.344;2023-05-29T02:08:05;101748.25;;;21.94;21.83
13478;BME280;12598;62.382;17.344;2023-05-29T02:09:07;101737.06;;;21.89;22.12
13478;BME280;12598;62.382;17.344;2023-05-29T02:10:10;101740.31;;;21.92;22.35
13478;BME280;12598;62.382;17.344;2023-05-29T02:11:12;101743.03;;;21.92;21.76
13478;BME280;12598;62.382;17.344;2023-05-29T02:12:14;101728.13;;;21.88;21.91
13478;BME280;12598;62.382;17.344;2023-05-29T02:13:17;101736.78;;;21.92;21.87
13478;BME280;12598;62.382;17.344;2023-05-29T02:14:19;101735.06;;;21.91;22.59
13478;BME280;12598;62.382;17.344;2023-05-29T02:15:21;101734.06;;;21.92;22.50
13478;BME280;12598;62.382;17.344;2023-05-29T02:16:23;101738.75;;;21.90;22.08
13478;BME280;12598;62.382;17.344;2023-05-29T02:17:25;101732.38;;;21.91;22.38
13478;BME280;12598;62.382;17.344;2023-05-29T02:18:27;101733.38;;;21.90;22.42
13478;BME280;12598;62.382;17.344;2023-05-29T02:19:29;101733.38;;;21.90;21.74
13478;BME280;12598;62.382;17.344;2023-05-29T02:20:31;101736.06;;;21.90;21.97
13478;BME280;12598;62.382;17.344;2023-05-29T02:21:33;101737.91;;;21.89;21.94
13478;BME280;12598;62.382;17.344;2023-05-29T02:22:35;101737.91;;;21.89;22.29
13478;BME280;12598;62.382;17.344;2023-05-29T02:23:37;101735.38;;;21.88;21.77
13478;BME280;12598;62.382;17.344;2023-05-29T02:24:39;101729.00;;;21.89;22.18
13478;BME280;12598;62.382;17.344;2023-05-29T02:25:41;101735.38;;;21.88;22.07
13478;BME280;12598;62.382;17.344;2023-05-29T02:26:45;101736.06;;;21.90;22.58
13478;BME280;12598;62.382;17.344;2023-05-29T02:27:48;101738.75;;;21.90;22.42
13478;BME280;12598;62.382;17.344;2023-05-29T02:28:50;101738.06;;;21.88;22.27
13478;BME280;12598;62.382;17.344;2023-05-29T02:29:52;101734.97;;;21.83;21.76
13478;BME280;12598;62.382;17.344;2023-05-29T02:30:55;101738.91;;;21.88;21.73
13478;BME280;12598;62.382;17.344;2023-05-29T02:31:57;101740.75;;;21.88;22.37
13478;BME280;12598;62.382;17.344;2023-05-29T02:32:59;101744.28;;;21.88;22.25
13478;BME280;12598;62.382;17.344;2023-05-29T02:34:01;101746.16;;;21.88;22.55
13478;BME280;12598;62.382;17.344;2023-05-29T02:35:04;101753.34;;;21.87;21.67
13478;BME280;12598;62.382;17.344;2023-05-29T02:36:06;101753.34;;;21.87;22.45
13478;BME280;12598;62.382;17.344;2023-05-29T02:37:13;101741.47;;;21.90;22.46
13478;BME280;12598;62.382;17.344;2023-05-29T02:38:15;101761.31;;;21.89;21.71
13478;BME280;12598;62.382;17.344;2023-05-29T02:39:17;101753.34;;;21.87;21.92
13478;BME280;12598;62.382;17.344;2023-05-29T02:40:20;101750.97;;;21.84;22.22
13478;BME280;12598;62.382;17.344;2023-05-29T02:41:21;101752.53;;;21.87;22.39
13478;BME280;12598;62.382;17.344;2023-05-29T02:42:24;101746.75;;;21.82;22.56
13478;BME280;12598;62.382;17.344;2023-05-29T02:43:26;101760.59;;;21.87;22.13
13478;BME280;12598;62.382;17.344;2023-05-29T02:44:29;101762.44;;;21.86;21.98
13478;BME280;12598;62.382;17.344;2023-05-29T02:45:31;101761.59;;;21.86;22.19
13478;BME280;12598;62.382;17.344;2023-05-29T02:46:34;101752.13;;;21.82;22.17
13478;BME280;12598;62.382;17.344;2023-05-29T02:47:36;101759.91;;;21.85;22.27
13478;BME280;12598;62.382;17.344;2023-05-29T02:48:39;101755.34;;;21.85;21.97
13478;BME280;12598;62.382;17.344;2023-05-29T02:49:40;101753.66;;;21.84;21.91
13478;BME280;12598;62.382;17.344;2023-05-29T02:50:42;101759.91;;;21.85;22.59
13478;BME280;12598;62.382;17.344;2023-05-29T02:51:44;101759.91;;;21.85;22.11
13478;BME280;12598;62.382;17.344;2023-05-29T02:52:46;101750.97;;;21.84;21.79
13478;BME280;12598;62.382;17.344;2023-05-29T02:53:48;101755.66;;;21.82;22.37
13478;BME280;12598;62.382;17.344;2023-05-29T02:54:50;101749.72;;;21.79;22.18
13478;BME280;12598;62.382;17.344;2023-05-29T02:55:52;101760.91;;;21.84;22.57
13478;BME280;12598;62.382;17.344;2023-05-29T02:56:55;101765.28;;;21.85;21.97
13478;BME280;12598;62.382;17.344;2023-05-29T02:57:58;101755.34;;;21.85;22.16
13478;BME280;12598;62.382;17.344;2023-05-29T02:59:01;101759.91;;;21.85;21.80
13478;BME280;12598;62.382;17.344;2023-05-29T03:00:03;101756.50;;;21.83;21.91
13478;BME280;12598;62.382;17.344;2023-05-29T03:01:09;101756.22;;;21.86;22.44
13478;BME280;12598;62.382;17.344;2023-05-29T03:02:12;101755.34;;;21.85;22.56
13478;BME280;12598;62.382;17.344;2023-05-29T03:03:14;101752.81;;;21.84;21.97
13478;BME280;12598;62.382;17.344;2023-05-29T03:04:16;101758.22;;;21.84;22.62
13478;BME280;12598;62.382;17.344;2023-05-29T03:05:19;101758.22;;;21.84;22.39
13478;BME280;12598;62.382;17.344;2023-05-29T03:06:21;101757.34;;;21.83;21.97
13478;BME280;12598;62.382;17.344;2023-05-29T03:07:23;101759.22;;;21.83;22.29
13478;BME280;12598;62.382;17.344;2023-05-29T03:08:25;101751.56;;;21.78;21.89
13478;BME280;12598;62.382;17.344;2023-05-29T03:09:27;101759.22;;;21.83;22.60
13478;BME280;12598;62.382;17.344;2023-05-29T03:10:31;101732.47;;;21.72;21.79
13478;BME280;12598;62.382;17.344;2023-05-29T03:11:32;101760.19;;;21.82;22.57
13478;BME280;12598;62.382;17.344;2023-05-29T03:12:36;101750.84;;;21.76;22.00
13478;BME280;12598;62.382;17.344;2023-05-29T03:13:38;101748.03;;;21.78;22.02
13478;BME280;12598;62.382;17.344;2023-05-29T03:14:42;101760.19;;;21.82;22.14
13478;BME280;12598;62.382;17.344;2023-05-29T03:15:46;101753.81;;;21.83;22.40
13478;BME280;12598;62.382;17.344;2023-05-29T03:16:50;101761.03;;;21.82;21.74
13478;BME280;12598;62.382;17.344;2023-05-29T03:17:52;101766.41;;;21.82;21.91
13478;BME280;12598;62.382;17.344;2023-05-29T03:18:59;101760.50;;;21.79;22.09
13478;BME280;12598;62.382;17.344;2023-05-29T03:20:02;101754.81;;;21.82;22.20
13478;BME280;12598;62.382;17.344;2023-05-29T03:21:07;101762.91;;;21.82;21.86
13478;BME280;12598;62.382;17.344;2023-05-29T03:22:09;101763.91;;;21.81;22.42
13478;BME280;12598;62.382;17.344;2023-05-29T03:23:13;101758.50;;;21.81;22.04
13478;BME280;12598;62.382;17.344;2023-05-29T03:24:15;101762.19;;;21.80;22.26
13478;BME280;12598;62.382;17.344;2023-05-29T03:25:17;101754.13;;;21.80;22.59
13478;BME280;12598;62.382;17.344;2023-05-29T03:26:20;101767.59;;;21.80;21.73
13478;BME280;12598;62.382;17.344;2023-05-29T03:27:24;101755.94;;;21.79;22.58
13478;BME280;12598;62.382;17.344;2023-05-29T03:28:34;101759.22;;;21.83;22.20
13478;BME280;12598;62.382;17.344;2023-05-29T03:29:38;101760.19;;;21.82;22.33
13478;BME280;12598;62.382;17.344;2023-05-29T03:30:41;101758.50;;;21.81;21.83
13478;BME280;12598;62.382;17.344;2023-05-29T03:31:47;101756.66;;;21.81;22.51
13478;BME280;12598;62.382;17.344;2023-05-29T03:32:55;101757.50;;;21.82;21.92
13478;BME280;12598;62.382;17.344;2023-05-29T03:34:09;101760.91;;;21.84;21.90
13478;BME280;12598;62.382;17.344;2023-05-29T03:35:16;101761.03;;;21.82;21.64
13478;BME280;12598;62.382;17.344;2023-05-29T03:36:19;101757.66;;;21.80;22.13
13478;BME280;12598;62.382;17.344;2023-05-29T03:37:21;101762.19;;;21.80;21.76
13478;BME280;12598;62.382;17.344;2023-05-29T03:38:24;101760.50;;;21.79;22.12
13478;BME280;12598;62.382;17.344;2023-05-29T03:39:30;101763.19;;;21.79;21.81
13478;BME280;12598;62.382;17.344;2023-05-29T03:40:32;101742.69;;;21.68;22.18
13478;BME280;12598;62.382;17.344;2023-05-29T03:41:34;101747.94;;;21.70;22.30
13478;BME280;12598;62.382;17.344;2023-05-29T03:42:37;101767.00;;;21.76;21.83
13478;BME280;12598;62.382;17.344;2023-05-29T03:43:39;101760.81;;;21.76;21.99
13478;BME280;12598;62.382;17.344;2023-05-29T03:44:42;101753.16;;;21.71;22.42
13478;BME280;12598;62.382;17.344;2023-05-29T03:45:45;101757.69;;;21.71;22.26
13478;BME280;12598;62.382;17.344;2023-05-29T03:46:47;101754.31;;;21.69;22.16
13478;BME280;12598;62.382;17.344;2023-05-29T03:47:49;101761.78;;;21.75;21.91
13478;BME280;12598;62.382;17.344;2023-05-29T03:48:52;101762.78;;;21.74;22.58
13478;BME280;12598;62.382;17.344;2023-05-29T03:49:55;101752.84;;;21.74;21.99
13478;BME280;12598;62.382;17.344;2023-05-29T03:50:57;101755.53;;;21.74;22.38
13478;BME280;12598;62.382;17.344;2023-05-29T03:52:09;101758.81;;;21.78;22.56
13478;BME280;12598;62.382;17.344;2023-05-29T03:53:12;101746.63;;;21.74;22.57
13478;BME280;12598;62.382;17.344;2023-05-29T03:54:14;101755.41;;;21.76;22.36
13478;BME280;12598;62.382;17.344;2023-05-29T03:55:16;101733.75;;;21.68;22.42
13478;BME280;12598;62.382;17.344;2023-05-29T03:56:19;101739.56;;;21.73;22.05
13478;BME280;12598;62.382;17.344;2023-05-29T03:57:21;101745.78;;;21.73;22.02
13478;BME280;12598;62.382;17.344;2023-05-29T03:58:24;101743.25;;;21.72;22.12
13478;BME280;12598;62.382;17.344;2023-05-29T03:59:27;101743.94;;;21.74;22.71
13478;BME280;12598;62.382;17.344;2023-05-29T04:00:28;101727.53;;;21.67;22.35
13478;BME280;12598;62.382;17.344;2023-05-29T04:01:34;101725.25;;;21.63;22.46
13478;BME280;12598;62.382;17.344;2023-05-29T04:02:37;101740.56;;;21.72;22.03
13478;BME280;12598;62.382;17.344;2023-05-29T04:03:40;101742.25;;;21.73;22.67
13478;BME280;12598;62.382;17.344;2023-05-29T04:04:42;101738.69;;;21.72;21.92
13478;BME280;12598;62.382;17.344;2023-05-29T04:05:45;101737.00;;;21.71;22.28
13478;BME280;12598;62.382;17.344;2023-05-29T04:06:47;101733.47;;;21.71;22.41
13478;BME280;12598;62.382;17.344;2023-05-29T04:07:49;101743.25;;;21.72;22.52
13478;BME280;12598;62.382;17.344;2023-05-29T04:08:53;101706.16;;;21.56;22.64
13478;BME280;12598;62.382;17.344;2023-05-29T04:09:55;101738.69;;;21.72;22.70
13478;BME280;12598;62.382;17.344;2023-05-29T04:10:57;101722.97;;;21.68;22.66
13478;BME280;12598;62.382;17.344;2023-05-29T04:11:59;101721.44;;;21.65;22.46
13478;BME280;12598;62.382;17.344;2023-05-29T04:13:04;101721.16;;;21.68;22.47
13478;BME280;12598;62.382;17.344;2023-05-29T04:14:05;101734.16;;;21.73;21.98
13478;BME280;12598;62.382;17.344;2023-05-29T04:15:08;101717.16;;;21.72;22.39
13478;BME280;12598;62.382;17.344;2023-05-29T04:16:10;101712.63;;;21.73;22.18
13478;BME280;12598;62.382;17.344;2023-05-29T04:17:12;101715.16;;;21.74;21.77
13478;BME280;12598;62.382;17.344;2023-05-29T04:18:17;101713.34;;;21.75;22.44
13478;BME280;12598;62.382;17.344;2023-05-29T04:19:18;101718.72;;;21.75;22.66
13478;BME280;12598;62.382;17.344;2023-05-29T04:20:22;101713.34;;;21.75;22.15
13478;BME280;12598;62.382;17.344;2023-05-29T04:21:24;101707.25;;;21.73;22.58
13478;BME280;12598;62.382;17.344;2023-05-29T04:22:27;101711.34;;;21.77;22.00
13478;BME280;12598;62.382;17.344;2023-05-29T04:23:29;101714.88;;;21.77;22.17
13478;BME280;12598;62.382;17.344;2023-05-29T04:24:32;101700.31;;;21.70;22.12
13478;BME280;12598;62.382;17.344;2023-05-29T04:25:34;101713.03;;;21.78;22.20
13478;BME280;12598;62.382;17.344;2023-05-29T04:26:38;101712.03;;;21.79;21.89
13478;BME280;12598;62.382;17.344;2023-05-29T04:27:43;101717.25;;;21.80;22.41
13478;BME280;12598;62.382;17.344;2023-05-29T04:28:53;101694.63;;;21.73;22.41
13478;BME280;12598;62.382;17.344;2023-05-29T04:29:59;101712.44;;;21.84;22.10
13478;BME280;12598;62.382;17.344;2023-05-29T04:31:07;101712.25;;;21.85;22.05
13478;BME280;12598;62.382;17.344;2023-05-29T04:32:11;101692.63;;;21.75;21.92
13478;BME280;12598;62.382;17.344;2023-05-29T04:33:14;101713.13;;;21.86;22.34
13478;BME280;12598;62.382;17.344;2023-05-29T04:34:21;101717.53;;;21.87;21.82
13478;BME280;12598;62.382;17.344;2023-05-29T04:35:23;101723.91;;;21.86;22.59
13478;BME280;12598;62.382;17.344;2023-05-29T04:36:31;101708.03;;;21.83;21.99
13478;BME280;12598;62.382;17.344;2023-05-29T04:37:44;101712.84;;;21.89;22.15
13478;BME280;12598;62.382;17.344;2023-05-29T04:38:48;101714.53;;;21.90;21.92
13478;BME280;12598;62.382;17.344;2023-05-29T04:39:54;101714.53;;;21.90;22.55
13478;BME280;12598;62.382;17.344;2023-05-29T04:40:59;101711.84;;;21.90;21.97
13478;BME280;12598;62.382;17.344;2023-05-29T04:42:03;101714.53;;;21.90;22.50
13478;BME280;12598;62.382;17.344;2023-05-29T04:43:05;101723.59;;;21.89;22.27
13478;BME280;12598;62.382;17.344;2023-05-29T04:44:24;101719.63;;;21.93;21.83
13478;BME280;12598;62.382;17.344;2023-05-29T04:45:28;101724.16;;;21.92;21.68
13478;BME280;12598;62.382;17.344;2023-05-29T04:46:31;101727.84;;;21.91;22.27
13478;BME280;12598;62.382;17.344;2023-05-29T04:47:33;101708.03;;;21.83;22.01
13478;BME280;12598;62.382;17.344;2023-05-29T04:48:35;101723.19;;;21.84;22.14
13478;BME280;12598;62.382;17.344;2023-05-29T04:49:37;101721.91;;;21.88;21.73
13478;BME280;12598;62.382;17.344;2023-05-29T04:50:40;101727.28;;;21.88;22.30
13478;BME280;12598;62.382;17.344;2023-05-29T04:51:43;101726.28;;;21.89;22.48
13478;BME280;12598;62.382;17.344;2023-05-29T04:52:44;101710.34;;;21.78;22.02
13478;BME280;12598;62.382;17.344;2023-05-29T04:53:48;101711.44;;;21.85;21.73
13478;BME280;12598;62.382;17.344;2023-05-29T04:54:50;101710.03;;;21.81;22.33
13478;BME280;12598;62.382;17.344;2023-05-29T04:55:52;101721.91;;;21.88;22.19
13478;BME280;12598;62.382;17.344;2023-05-29T04:56:55;101723.59;;;21.89;22.12
13478;BME280;12598;62.382;17.344;2023-05-29T04:58:01;101724.44;;;21.89;22.27
13478;BME280;12598;62.382;17.344;2023-05-29T04:59:03;101721.91;;;21.88;22.23
13478;BME280;12598;62.382;17.344;2023-05-29T05:00:06;101725.59;;;21.87;21.50
13478;BME280;12598;62.382;17.344;2023-05-29T05:01:11;101720.03;;;21.88;21.38
13478;BME280;12598;62.382;17.344;2023-05-29T05:02:16;101727.28;;;21.88;22.00
13478;BME280;12598;62.382;17.344;2023-05-29T05:03:19;101726.59;;;21.86;21.62
13478;BME280;12598;62.382;17.344;2023-05-29T05:04:20;101723.03;;;21.85;21.97
13478;BME280;12598;62.382;17.344;2023-05-29T05:05:23;101724.91;;;21.85;21.98
13478;BME280;12598;62.382;17.344;2023-05-29T05:06:30;101725.72;;;21.85;21.41
13478;BME280;12598;62.382;17.344;2023-05-29T05:07:32;101727.59;;;21.85;22.13
13478;BME280;12598;62.382;17.344;2023-05-29T05:08:35;101724.91;;;21.85;21.73
13478;BME280;12598;62.382;17.344;2023-05-29T05:09:38;101726.19;;;21.81;21.98
13478;BME280;12598;62.382;17.344;2023-05-29T05:10:43;101717.13;;;21.82;21.80
13478;BME280;12598;62.382;17.344;2023-05-29T05:11:45;101726.44;;;21.87;22.13
13478;BME280;12598;62.382;17.344;2023-05-29T05:12:47;101715.97;;;21.84;21.73
13478;BME280;12598;62.382;17.344;2023-05-29T05:13:52;101715.13;;;21.84;21.92
13478;BME280;12598;62.382;17.344;2023-05-29T05:14:53;101726.00;;;21.92;22.15
13478;BME280;12598;62.382;17.344;2023-05-29T05:15:55;101724.16;;;21.92;21.91
13478;BME280;12598;62.382;17.344;2023-05-29T05:16:57;101724.88;;;21.94;22.26
13478;BME280;12598;62.382;17.344;2023-05-29T05:17:59;101731.78;;;21.97;21.37
13478;BME280;12598;62.382;17.344;2023-05-29T05:19:03;101729.78;;;21.99;21.43
13478;BME280;12598;62.382;17.344;2023-05-29T05:20:08;101730.19;;;22.04;21.44
13478;BME280;12598;62.382;17.344;2023-05-29T05:21:10;101717.31;;;21.98;21.71
13478;BME280;12598;62.382;17.344;2023-05-29T05:22:12;101722.66;;;22.07;21.85
13478;BME280;12598;62.382;17.344;2023-05-29T05:23:14;101714.00;;;22.04;21.68
13478;BME280;12598;62.382;17.344;2023-05-29T05:24:16;101728.31;;;22.14;21.49
13478;BME280;12598;62.382;17.344;2023-05-29T05:25:18;101719.22;;;22.15;21.21
13478;BME280;12598;62.382;17.344;2023-05-29T05:26:20;101724.31;;;22.18;21.78
13478;BME280;12598;62.382;17.344;2023-05-29T05:27:24;101721.13;;;22.22;21.98
13478;BME280;12598;62.382;17.344;2023-05-29T05:28:27;101725.41;;;22.25;21.11
13478;BME280;12598;62.382;17.344;2023-05-29T05:29:29;101721.41;;;22.29;21.17
13478;BME280;12598;62.382;17.344;2023-05-29T05:30:32;101727.47;;;22.31;21.41
13478;BME280;12598;62.382;17.344;2023-05-29T05:31:33;101712.31;;;22.30;21.24
13478;BME280;12598;62.382;17.344;2023-05-29T05:32:36;101729.59;;;22.37;20.79
13478;BME280;12598;62.382;17.344;2023-05-29T05:33:40;101721.38;;;22.38;20.76